createdAt,value
2022-10-26T00:00:00.586Z,11.9
2022-10-26T00:05:00.525Z,11.9
2022-10-26T00:10:00.359Z,11.9
2022-10-26T00:15:00.561Z,12
2022-10-26T00:20:00.561Z,11.9
2022-10-26T00:25:00.561Z,12
2022-10-26T00:30:00.570Z,12
2022-10-26T00:35:10.428Z,12
2022-10-26T00:40:00.589Z,12.1
2022-10-26T00:45:00.600Z,12.1
2022-10-26T00:50:00.585Z,12.1
2022-10-26T00:55:00.613Z,12
2022-10-26T01:00:00.635Z,11.9
2022-10-26T01:05:00.634Z,11.9
2022-10-26T01:10:00.626Z,11.8
2022-10-26T01:15:00.619Z,11.8
2022-10-26T01:20:00.625Z,11.8
2022-10-26T01:25:00.644Z,11.6
2022-10-26T01:30:00.639Z,11.4
2022-10-26T01:35:00.656Z,11.3
2022-10-26T01:40:00.487Z,11.2
2022-10-26T01:45:00.356Z,11.2
2022-10-26T01:50:00.275Z,11.1
2022-10-26T01:55:00.289Z,11.1
2022-10-26T02:00:00.367Z,11.1
2022-10-26T02:05:02.032Z,11.1
2022-10-26T02:10:02.261Z,11.1
2022-10-26T02:15:01.955Z,11.1
2022-10-26T02:20:02.355Z,11.2
2022-10-26T02:25:01.616Z,11.3
2022-10-26T02:30:01.665Z,11.4
2022-10-26T02:35:01.785Z,11.7
2022-10-26T02:40:01.797Z,11.8
2022-10-26T02:45:01.742Z,11.9
2022-10-26T02:50:01.685Z,11.9
2022-10-26T02:55:01.674Z,12
2022-10-26T03:00:01.750Z,11.9
2022-10-26T03:05:01.683Z,11.9
2022-10-26T03:10:01.666Z,11.9
2022-10-26T03:15:01.670Z,11.9
2022-10-26T03:20:01.683Z,12
2022-10-26T03:25:01.744Z,12
2022-10-26T03:30:01.684Z,12
2022-10-26T03:35:01.695Z,12
2022-10-26T03:40:01.698Z,12
2022-10-26T03:45:01.704Z,12.1
2022-10-26T03:50:01.843Z,12
2022-10-26T03:55:01.731Z,12.1
2022-10-26T04:00:01.715Z,12.1
2022-10-26T04:05:01.733Z,12.1
2022-10-26T04:10:01.926Z,12
2022-10-26T04:20:01.950Z,11.9
2022-10-26T04:25:01.983Z,11.9
2022-10-26T04:30:01.998Z,11.9
2022-10-26T04:35:02.008Z,11.9
2022-10-26T04:40:02.650Z,11.9
2022-10-26T04:45:02.526Z,11.9
2022-10-26T04:50:02.068Z,11.9
2022-10-26T04:55:02.003Z,11.9
2022-10-26T05:00:02.374Z,11.9
2022-10-26T05:10:02.133Z,12
2022-10-26T05:15:04.052Z,12
2022-10-26T05:20:02.112Z,12
2022-10-26T05:25:02.140Z,12
2022-10-26T05:30:02.067Z,12
2022-10-26T05:35:02.035Z,12
2022-10-26T05:40:02.019Z,12
2022-10-26T05:45:02.036Z,12.1
2022-10-26T05:50:02.037Z,12.1
2022-10-26T05:55:01.863Z,12.1
2022-10-26T06:00:01.837Z,12.1
2022-10-26T06:05:01.842Z,12.1
2022-10-26T06:10:01.845Z,12.1
2022-10-26T06:15:01.856Z,12.1
2022-10-26T06:20:01.974Z,12
2022-10-26T06:25:02.074Z,11.9
2022-10-26T06:30:01.874Z,11.9
2022-10-26T06:35:06.900Z,11.9
2022-10-26T06:40:02.081Z,11.9
2022-10-26T06:45:02.159Z,12
2022-10-26T06:50:02.110Z,12.1
2022-10-26T06:55:02.105Z,12.2
2022-10-26T07:00:02.158Z,12.2
2022-10-26T07:05:02.130Z,12.2
2022-10-26T07:10:02.138Z,12.3
2022-10-26T07:15:01.951Z,12.4
2022-10-26T07:20:02.153Z,12.5
2022-10-26T07:25:03.143Z,12.8
2022-10-26T07:30:02.173Z,12.8
2022-10-26T07:35:02.206Z,13
2022-10-26T07:40:05.664Z,13.2
2022-10-26T07:45:00.398Z,13.5
2022-10-26T07:50:00.388Z,13.8
2022-10-26T07:55:00.395Z,14.1
2022-10-26T08:00:00.396Z,14.3
2022-10-26T08:05:00.405Z,14.2
2022-10-26T08:10:00.863Z,14.1
2022-10-26T08:15:00.400Z,14
2022-10-26T08:20:00.430Z,14
2022-10-26T08:25:00.434Z,14.1
2022-10-26T08:30:00.421Z,14.2
2022-10-26T08:35:00.435Z,14.4
2022-10-26T08:40:02.335Z,14.6
2022-10-26T08:45:00.478Z,15.2
2022-10-26T08:50:00.504Z,15.2
2022-10-26T08:55:00.456Z,15.3
2022-10-26T09:00:00.465Z,15.6
2022-10-26T09:05:00.588Z,15.9
2022-10-26T09:10:00.504Z,15.6
2022-10-26T09:15:00.473Z,15.6
2022-10-26T09:20:00.493Z,15.6
2022-10-26T09:25:04.065Z,15.9
2022-10-26T09:30:00.571Z,16.1
2022-10-26T09:35:00.588Z,16.4
2022-10-26T09:40:00.592Z,16.5
2022-10-26T09:45:00.605Z,16.4
2022-10-26T09:50:00.523Z,16.4
2022-10-26T09:55:00.520Z,16.6
2022-10-26T10:00:00.647Z,16.7
2022-10-26T10:05:00.547Z,16.8
2022-10-26T10:10:00.575Z,16.9
2022-10-26T10:15:00.554Z,17.1
2022-10-26T10:20:00.593Z,17.1
2022-10-26T10:25:00.567Z,17.4
2022-10-26T10:30:04.050Z,17.6
2022-10-26T10:35:00.799Z,18
2022-10-26T10:40:00.590Z,18.2
2022-10-26T10:45:00.333Z,18.3
2022-10-26T10:50:00.436Z,18.3
2022-10-26T10:55:00.340Z,18.1
2022-10-26T11:00:00.358Z,17.9
2022-10-26T11:05:00.357Z,17.9
2022-10-26T11:10:00.425Z,18.1
2022-10-26T11:15:00.499Z,18.4
2022-10-26T11:20:00.368Z,18.6
2022-10-26T11:25:00.494Z,18.7
2022-10-26T11:30:00.472Z,18.9
2022-10-26T11:35:00.502Z,18.9
2022-10-26T11:40:01.442Z,18.9
2022-10-26T11:45:00.526Z,19.1
2022-10-26T11:50:01.410Z,19.2
2022-10-26T11:55:00.468Z,19.2
2022-10-26T12:00:00.409Z,19.3
2022-10-26T12:05:00.414Z,19.4
2022-10-26T12:10:00.422Z,19.6
2022-10-26T12:15:00.426Z,19.7
2022-10-26T12:20:00.433Z,19.8
2022-10-26T12:25:00.438Z,19.8
2022-10-26T12:30:00.447Z,19.9
2022-10-26T12:35:00.458Z,19.8
2022-10-26T12:40:00.462Z,19.8
2022-10-26T12:45:00.465Z,19.9
2022-10-26T12:50:00.460Z,19.9
2022-10-26T12:55:00.469Z,19.9
2022-10-26T13:00:00.484Z,20
2022-10-26T13:05:00.481Z,20
2022-10-26T13:10:00.483Z,20
2022-10-26T13:15:00.495Z,20
2022-10-26T13:20:00.499Z,20
2022-10-26T13:25:00.496Z,20
2022-10-26T13:30:00.509Z,20
2022-10-26T13:35:00.505Z,20
2022-10-26T13:40:00.376Z,20
2022-10-26T13:45:00.254Z,20
2022-10-26T13:50:00.203Z,19.9
2022-10-26T13:55:00.112Z,19.9
2022-10-26T14:00:03.147Z,19.9
2022-10-26T14:05:00.116Z,19.9
2022-10-26T14:10:00.264Z,19.9
2022-10-26T14:15:00.122Z,19.9
2022-10-26T14:20:00.153Z,19.8
2022-10-26T14:25:00.341Z,19.8
2022-10-26T14:30:22.418Z,19.7
2022-10-26T14:35:00.153Z,19.6
2022-10-26T14:40:00.181Z,19.6
2022-10-26T14:45:00.154Z,19.4
2022-10-26T14:55:00.165Z,19.1
2022-10-26T15:00:00.192Z,18.9
2022-10-26T15:05:00.171Z,18.7
2022-10-26T15:10:00.183Z,18.5
2022-10-26T15:15:05.405Z,18.4
2022-10-26T15:20:00.189Z,18.3
2022-10-26T15:25:00.191Z,18.2
2022-10-26T15:30:00.204Z,18.1
2022-10-26T15:35:00.209Z,17.9
2022-10-26T15:40:00.211Z,17.7
2022-10-26T15:45:00.221Z,17.4
2022-10-26T15:50:00.376Z,17.1
2022-10-26T15:55:00.232Z,16.9
2022-10-26T16:00:00.351Z,16.6
2022-10-26T16:05:00.244Z,16.2
2022-10-26T16:10:00.698Z,16
2022-10-26T16:15:05.404Z,15.6
2022-10-26T16:20:03.224Z,15.4
2022-10-26T16:25:00.666Z,15.1
2022-10-26T16:30:00.888Z,14.8
2022-10-26T16:35:00.268Z,14.5
2022-10-26T16:40:00.274Z,14.3
2022-10-26T16:45:02.724Z,14.2
2022-10-26T16:50:00.276Z,14.1
2022-10-26T16:55:00.282Z,13.9
2022-10-26T17:00:00.320Z,13.7
2022-10-26T17:05:02.896Z,13.6
2022-10-26T17:10:00.308Z,13.6
2022-10-26T17:15:00.318Z,13.4
2022-10-26T17:20:00.310Z,13.3
2022-10-26T17:25:00.454Z,13.2
2022-10-26T17:30:00.324Z,13.1
2022-10-26T17:35:00.360Z,13
2022-10-26T17:40:00.329Z,12.9
2022-10-26T17:45:00.333Z,12.9
2022-10-26T17:50:00.342Z,12.8
2022-10-26T17:55:01.948Z,12.8
2022-10-26T18:00:00.381Z,12.6
2022-10-26T18:05:03.800Z,12.6
2022-10-26T18:10:19.523Z,12.5
2022-10-26T18:15:00.447Z,12.4
2022-10-26T18:20:00.570Z,12.4
2022-10-26T18:25:00.901Z,12.2
2022-10-26T18:30:01.156Z,12.2
2022-10-26T18:35:01.021Z,12
2022-10-26T18:40:00.778Z,11.9
2022-10-26T18:45:01.030Z,11.8
2022-10-26T18:50:00.725Z,11.8
2022-10-26T18:55:00.702Z,11.7
2022-10-26T19:00:00.695Z,11.6
2022-10-26T19:05:00.717Z,11.6
2022-10-26T19:10:00.784Z,11.6
2022-10-26T19:15:00.718Z,11.5
2022-10-26T19:20:00.730Z,11.5
2022-10-26T19:25:00.753Z,11.6
2022-10-26T19:30:00.764Z,11.6
2022-10-26T19:35:00.751Z,11.6
2022-10-26T19:40:00.659Z,11.6
2022-10-26T19:45:00.492Z,11.6
2022-10-26T19:50:00.424Z,11.4
2022-10-26T19:55:00.456Z,11.4
2022-10-26T20:00:00.539Z,11.4
2022-10-26T20:05:00.466Z,11.4
2022-10-26T20:10:00.512Z,11.3
2022-10-26T20:15:00.475Z,11.4
2022-10-26T20:20:00.453Z,11.4
2022-10-26T20:25:00.649Z,11.3
2022-10-26T20:30:00.430Z,11.3
2022-10-26T20:35:00.423Z,11.2
2022-10-26T20:40:00.433Z,11.2
2022-10-26T20:45:00.476Z,11.2
2022-10-26T20:50:00.441Z,11.1
2022-10-26T20:55:00.160Z,11.1
2022-10-26T21:00:00.214Z,10.9
2022-10-26T21:05:00.168Z,10.9
2022-10-26T21:10:00.192Z,10.9
2022-10-26T21:15:00.175Z,10.8
2022-10-26T21:20:00.203Z,10.9
2022-10-26T21:25:00.184Z,10.8
2022-10-26T21:30:00.198Z,10.7
2022-10-26T21:35:00.197Z,10.7
2022-10-26T21:40:00.200Z,10.7
2022-10-26T21:45:00.213Z,10.6
2022-10-26T21:50:00.218Z,10.5
2022-10-26T21:55:00.222Z,10.5
2022-10-26T22:00:00.226Z,10.5
2022-10-26T22:05:00.260Z,10.5
2022-10-26T22:10:11.573Z,10.6
2022-10-26T22:15:00.515Z,10.6
2022-10-26T22:20:00.245Z,10.7
2022-10-26T22:25:00.269Z,10.7
2022-10-26T22:30:00.258Z,10.7
2022-10-26T22:35:10.893Z,10.7
2022-10-26T22:40:00.264Z,10.7
2022-10-26T22:45:00.267Z,10.7
2022-10-26T22:50:00.275Z,10.6
2022-10-26T22:55:00.685Z,10.6
2022-10-26T23:00:00.551Z,10.6
2022-10-26T23:05:00.599Z,10.5
2022-10-26T23:10:01.889Z,10.5
2022-10-26T23:15:00.565Z,10.4
2022-10-26T23:20:00.625Z,10.4
2022-10-26T23:25:00.644Z,10.5
2022-10-26T23:30:00.704Z,10.5
2022-10-26T23:35:00.726Z,10.4
2022-10-26T23:40:00.734Z,10.2
2022-10-26T23:45:00.718Z,10.2
2022-10-26T23:50:00.670Z,10.2
2022-10-26T23:55:00.654Z,10.2
